Terminal Aerodrome Forecast
Issued by NWS

Home | Current Version | Previous Version | Text Only | Print | Product List | Glossary On
Versions: 1 2 3 4 5 6 7 8 9 10 11 12 13 14 15 16
000
FTUS45 KABQ 022113 AAA
TAFLVS
TAF AMD
KLVS 022113Z 0221/0318 23010KT P6SM VCTS BKN100CB
      TEMPO 0221/0223 VRB15G30KT -TSRA BKN100CB
     FM022330 25011KT P6SM VCSH SCT100 BKN200
     FM030400 VRB06KT P6SM BKN200
     FM031600 22013KT P6SM BKN120=

USA.gov is the U.S. government's official web portal to all federal, state and local government web resources and services.